Time;durP1;ratioP1;P1;durP2;ratioP2;P2;SDS_P1;SDS_P2;PMS_P1;PMS_P2;Temp;Humidity;BMP_temperature;BMP_pressure;BME280_temperature;BME280_humidity;BME280_pressure;Samples;Min_cycle;Max_cycle;Signal;HPM_P1;HPM_P2
2022/01/16 00:01:21;;;;;;;1999.90;999.90;;;0.60;99.90;;;;;;5074441;28;20477;-70
2022/01/16 00:06:32;;;;;;;1999.90;999.90;;;0.80;99.90;;;;;;5094386;28;20535;-70
2022/01/16 00:08:58;;;;;;;1999.90;999.90;;;0.70;99.90;;;;;;5083787;28;20514;-71
2022/01/16 00:11:25;;;;;;;1999.90;999.90;;;0.40;99.90;;;;;;5077972;28;20436;-70
2022/01/16 00:13:53;;;;;;;1999.90;999.90;;;0.50;99.90;;;;;;5087007;28;20926;-70
2022/01/16 00:16:20;;;;;;;1999.90;999.90;;;0.50;99.90;;;;;;5088790;28;20514;-70
2022/01/16 00:18:52;;;;;;;1999.90;999.90;;;0.90;99.90;;;;;;5075432;28;20456;-70
2022/01/16 00:21:20;;;;;;;1999.90;999.90;;;0.40;99.90;;;;;;5075318;28;21186;-70
2022/01/16 00:23:47;;;;;;;1999.90;999.90;;;0.40;99.90;;;;;;5084046;28;20448;-70
2022/01/16 00:26:14;;;;;;;1999.90;999.90;;;0.30;99.90;;;;;;5091327;28;20465;-70
2022/01/16 00:28:41;;;;;;;1999.90;999.90;;;0.40;99.90;;;;;;5092412;28;20486;-69
2022/01/16 00:31:09;;;;;;;1999.90;999.90;;;0.30;99.90;;;;;;5077683;28;20505;-71
2022/01/16 00:33:39;;;;;;;1999.90;999.90;;;0.20;99.90;;;;;;5084468;28;20452;-72
2022/01/16 00:36:06;;;;;;;1999.90;999.90;;;0.40;99.90;;;;;;5076823;28;20501;-70
2022/01/16 00:38:33;;;;;;;1999.90;999.90;;;0.30;99.90;;;;;;5094837;28;20441;-70
2022/01/16 00:41:00;;;;;;;1999.90;999.90;;;0.40;99.90;;;;;;5084939;28;20441;-70
2022/01/16 00:43:27;;;;;;;1999.90;999.90;;;0.60;99.90;;;;;;5094568;28;20444;-70
2022/01/16 00:45:53;;;;;;;1999.90;999.90;;;0.30;99.90;;;;;;5094336;28;20506;-70
2022/01/16 00:48:21;;;;;;;1999.90;999.90;;;0.30;99.90;;;;;;5087981;28;20486;-70
2022/01/16 00:50:48;;;;;;;1999.90;999.90;;;0.50;99.90;;;;;;5079673;28;20486;-69
2022/01/16 00:53:15;;;;;;;1999.90;999.90;;;0.20;99.90;;;;;;5094567;28;20441;-69
2022/01/16 00:55:41;;;;;;;1999.90;999.90;;;0.50;99.90;;;;;;5084537;28;20472;-69
2022/01/16 00:58:08;;;;;;;1999.90;999.90;;;0.20;99.90;;;;;;5093870;28;20444;-70
2022/01/16 01:00:35;;;;;;;1999.90;999.90;;;0.30;99.90;;;;;;5089895;28;20510;-70
2022/01/16 01:03:02;;;;;;;1999.90;999.90;;;0.30;99.90;;;;;;5073967;28;20481;-70
2022/01/16 01:05:30;;;;;;;1999.90;999.90;;;0.30;99.90;;;;;;5093242;28;20476;-72
2022/01/16 01:07:57;;;;;;;1999.90;999.90;;;0.30;99.90;;;;;;5093397;28;20509;-70
2022/01/16 01:10:29;;;;;;;1999.90;999.90;;;0.40;99.90;;;;;;5074833;28;20449;-70
2022/01/16 01:12:56;;;;;;;1999.90;999.90;;;0.40;99.90;;;;;;5073181;28;20479;-70
2022/01/16 01:15:26;;;;;;;1999.90;999.90;;;0.40;99.90;;;;;;5092460;28;20500;-69
2022/01/16 01:17:54;;;;;;;1999.90;999.90;;;0.80;99.90;;;;;;5093315;28;20448;-71
2022/01/16 01:20:22;;;;;;;1999.90;999.90;;;0.40;99.90;;;;;;5073451;28;20457;-70
2022/01/16 01:22:53;;;;;;;1999.90;999.90;;;1.00;99.90;;;;;;5074228;28;20481;-69
2022/01/16 01:25:22;;;;;;;1999.90;999.90;;;0.30;99.90;;;;;;5091925;28;20468;-70
2022/01/16 01:27:49;;;;;;;1999.90;999.90;;;0.30;99.90;;;;;;5093536;28;20457;-70
2022/01/16 01:30:18;;;;;;;1999.90;999.90;;;0.40;99.90;;;;;;5075866;28;20446;-70
2022/01/16 01:32:47;;;;;;;1999.90;999.90;;;0.50;99.90;;;;;;5073504;28;20441;-69
2022/01/16 01:35:18;;;;;;;1999.90;999.90;;;0.70;99.90;;;;;;5074211;28;20540;-70
2022/01/16 01:37:46;;;;;;;1999.90;999.90;;;0.20;99.90;;;;;;5074697;28;21024;-70
2022/01/16 01:40:18;;;;;;;1999.90;999.90;;;0.50;99.90;;;;;;5072143;28;20789;-69
2022/01/16 01:42:49;;;;;;;1999.90;999.90;;;0.40;99.90;;;;;;5081215;28;20461;-69
2022/01/16 01:51:07;;;;;;;1999.90;999.90;;;0.10;99.90;;;;;;5071830;28;20912;-71
2022/01/16 01:53:35;;;;;;;1999.90;999.90;;;0.70;99.90;;;;;;5075542;28;20437;-70
2022/01/16 01:56:04;;;;;;;1999.90;999.90;;;0.50;99.90;;;;;;5071251;28;20469;-72
2022/01/16 01:58:31;;;;;;;1999.90;999.90;;;0.10;99.90;;;;;;5084078;28;20502;-70
2022/01/16 02:00:58;;;;;;;1999.90;999.90;;;0.20;99.90;;;;;;5090870;28;21046;-69
2022/01/16 02:03:30;;;;;;;1999.90;999.90;;;0.20;99.90;;;;;;5079324;28;20613;-70
2022/01/16 02:05:57;;;;;;;1999.90;999.90;;;0.70;99.90;;;;;;5071417;28;20479;-70
2022/01/16 02:08:24;;;;;;;1999.90;999.90;;;0.40;99.90;;;;;;5082788;28;20835;-70
2022/01/16 02:10:51;;;;;;;1999.90;999.90;;;0.20;99.90;;;;;;5092370;28;20452;-70
2022/01/16 02:13:22;;;;;;;1999.90;999.90;;;0.40;99.90;;;;;;5090076;28;20522;-70
2022/01/16 02:30:18;;;;;;;1999.90;999.90;;;0.50;99.90;;;;;;5051228;28;20398;-69
2022/01/16 02:33:11;;;;;;;1999.90;999.90;;;0.20;99.90;;;;;;5063664;28;20428;-71
2022/01/16 02:35:38;;;;;;;1999.90;999.90;;;0.20;99.90;;;;;;5088169;28;20554;-69
2022/01/16 02:38:05;;;;;;;1999.90;999.90;;;0.10;99.90;;;;;;5082482;28;20450;-69
2022/01/16 02:40:35;;;;;;;1999.90;999.90;;;0.10;99.90;;;;;;5071670;28;20583;-70
2022/01/16 02:43:03;;;;;;;1999.90;999.90;;;0.10;99.90;;;;;;5080815;28;20476;-70
2022/01/16 02:45:31;;;;;;;1999.90;999.90;;;0.40;99.90;;;;;;5091377;28;20529;-68
2022/01/16 02:48:01;;;;;;;1999.90;999.90;;;0.10;99.90;;;;;;5082448;28;20457;-72
2022/01/16 02:50:29;;;;;;;1999.90;999.90;;;0.10;99.90;;;;;;5086099;28;20452;-70
2022/01/16 02:52:56;;;;;;;1999.90;999.90;;;0.10;99.90;;;;;;5087526;28;20499;-70
2022/01/16 02:55:24;;;;;;;1999.90;999.90;;;0.10;99.90;;;;;;5074189;28;20514;-70
2022/01/16 02:57:53;;;;;;;1999.90;999.90;;;0.20;99.90;;;;;;5081027;28;21099;-70
2022/01/16 03:00:21;;;;;;;1999.90;999.90;;;0.30;99.90;;;;;;5094481;28;20447;-71
2022/01/16 03:02:48;;;;;;;1999.90;999.90;;;0.10;99.90;;;;;;5093676;28;20794;-69
2022/01/16 03:05:16;;;;;;;1999.90;999.90;;;0.60;99.90;;;;;;5041656;28;1020004;-71
2022/01/16 03:07:43;;;;;;;1999.90;999.90;;;0.00;99.90;;;;;;5082150;28;20264;-70
2022/01/16 03:10:33;;;;;;;1999.90;999.90;;;0.00;99.90;;;;;;5096425;28;20444;-71
2022/01/16 03:13:01;;;;;;;1999.90;999.90;;;0.50;99.90;;;;;;5087877;28;20850;-69
2022/01/16 03:15:28;;;;;;;1999.90;999.90;;;0.20;99.90;;;;;;5075763;28;20469;-70
2022/01/16 03:23:25;;;;;;;1999.90;999.90;;;0.20;99.90;;;;;;5076741;28;20538;-70
2022/01/16 03:25:52;;;;;;;1999.90;999.90;;;0.20;99.90;;;;;;5095894;28;20522;-70
2022/01/16 03:28:21;;;;;;;1999.90;999.90;;;0.80;99.90;;;;;;5085478;28;20507;-70
2022/01/16 03:30:47;;;;;;;1999.90;999.90;;;0.30;99.90;;;;;;5075379;28;20445;-70
2022/01/16 03:33:15;;;;;;;1999.90;999.90;;;0.30;99.90;;;;;;5078221;28;20506;-69
2022/01/16 03:35:42;;;;;;;1999.90;999.90;;;0.30;99.90;;;;;;5075601;28;21087;-70
2022/01/16 03:38:09;;;;;;;1999.90;999.90;;;0.20;99.90;;;;;;5094326;28;20452;-69
2022/01/16 03:40:35;;;;;;;1999.90;999.90;;;0.80;99.90;;;;;;5095353;28;20469;-69
2022/01/16 03:43:12;;;;;;;1999.90;999.90;;;0.30;99.90;;;;;;5077869;28;20472;-70
2022/01/16 03:45:40;;;;;;;1999.90;999.90;;;0.70;99.90;;;;;;5074921;28;21001;-71
2022/01/16 03:48:07;;;;;;;1999.90;999.90;;;0.30;99.90;;;;;;5088508;28;20509;-70
2022/01/16 03:50:33;;;;;;;1999.90;999.90;;;0.30;99.90;;;;;;5094003;28;20444;-70
2022/01/16 03:53:00;;;;;;;1999.90;999.90;;;0.80;99.90;;;;;;5078635;28;20446;-70
2022/01/16 03:55:27;;;;;;;1999.90;999.90;;;0.70;99.90;;;;;;5074387;28;20534;-72
2022/01/16 03:57:53;;;;;;;1999.90;999.90;;;0.40;99.90;;;;;;5075675;28;20527;-70
2022/01/16 04:00:20;;;;;;;1999.90;999.90;;;0.40;99.90;;;;;;5074469;28;20496;-70
2022/01/16 04:02:48;;;;;;;1999.90;999.90;;;0.70;99.90;;;;;;5087914;28;20538;-70
2022/01/16 04:05:15;;;;;;;1999.90;999.90;;;0.40;99.90;;;;;;5074387;28;20526;-70
2022/01/16 04:07:42;;;;;;;1999.90;999.90;;;0.30;99.90;;;;;;5086143;28;20513;-71
2022/01/16 04:10:09;;;;;;;1999.90;999.90;;;0.90;99.90;;;;;;5094931;28;20448;-69
2022/01/16 04:12:39;;;;;;;1999.90;999.90;;;0.30;99.90;;;;;;5093899;28;20441;-72
2022/01/16 04:17:52;;;;;;;1999.90;999.90;;;0.20;99.90;;;;;;5083638;28;20444;-70
2022/01/16 04:20:19;;;;;;;1999.90;999.90;;;0.70;99.90;;;;;;5094722;28;20497;-71
2022/01/16 04:22:46;;;;;;;1999.90;999.90;;;0.10;99.90;;;;;;5082851;28;20481;-69
2022/01/16 04:25:13;;;;;;;1999.90;999.90;;;0.20;99.90;;;;;;5074140;28;20552;-70
2022/01/16 04:27:40;;;;;;;1999.90;999.90;;;0.30;99.90;;;;;;5077050;28;20445;-69
2022/01/16 04:30:08;;;;;;;1999.90;999.90;;;0.30;99.90;;;;;;5081951;28;20506;-70
2022/01/16 04:32:35;;;;;;;1999.90;999.90;;;0.20;99.90;;;;;;5085504;28;20507;-70
2022/01/16 04:35:03;;;;;;;1999.90;999.90;;;0.20;99.90;;;;;;5073889;28;20518;-70
2022/01/16 04:37:30;;;;;;;1999.90;999.90;;;0.20;99.90;;;;;;5081757;28;20444;-71
2022/01/16 04:40:00;;;;;;;1999.90;999.90;;;0.30;99.90;;;;;;5094822;28;20444;-70
2022/01/16 04:45:12;;;;;;;1999.90;999.90;;;0.60;99.90;;;;;;5088037;28;20558;-69
2022/01/16 04:47:39;;;;;;;1999.90;999.90;;;0.20;99.90;;;;;;5086071;28;20445;-70
2022/01/16 04:50:11;;;;;;;1999.90;999.90;;;0.60;99.90;;;;;;5073530;28;20863;-70
2022/01/16 04:52:38;;;;;;;1999.90;999.90;;;0.40;99.90;;;;;;5074249;28;20449;-70
2022/01/16 04:55:05;;;;;;;1999.90;999.90;;;0.30;99.90;;;;;;5074003;28;20465;-70
2022/01/16 04:57:32;;;;;;;1999.90;999.90;;;0.40;99.90;;;;;;5080035;28;20506;-70
2022/01/16 04:59:59;;;;;;;1999.90;999.90;;;0.60;99.90;;;;;;5089491;28;20449;-70
2022/01/16 05:02:25;;;;;;;1999.90;999.90;;;0.60;99.90;;;;;;5085184;28;20450;-69
2022/01/16 05:04:52;;;;;;;1999.90;999.90;;;0.50;99.90;;;;;;5073401;28;20538;-72
2022/01/16 05:07:20;;;;;;;1999.90;999.90;;;0.70;99.90;;;;;;5080570;28;20470;-69
2022/01/16 05:09:46;;;;;;;1999.90;999.90;;;0.30;99.90;;;;;;5094068;28;20440;-71
2022/01/16 05:12:24;;;;;;;1999.90;999.90;;;0.30;99.90;;;;;;5086894;28;20442;-70
2022/01/16 05:17:34;;;;;;;1999.90;999.90;;;0.10;99.90;;;;;;5084738;28;20549;-70
2022/01/16 05:20:01;;;;;;;1999.90;999.90;;;0.20;99.90;;;;;;5072887;28;20941;-72
2022/01/16 05:22:29;;;;;;;1999.90;999.90;;;0.60;99.90;;;;;;5080402;28;20861;-70
2022/01/16 05:24:56;;;;;;;1999.90;999.90;;;0.10;99.90;;;;;;5093666;28;20473;-70
2022/01/16 05:27:22;;;;;;;1999.90;999.90;;;0.20;99.90;;;;;;5086997;28;20445;-70
2022/01/16 05:29:49;;;;;;;1999.90;999.90;;;0.10;99.90;;;;;;5092281;28;20533;-71
2022/01/16 05:32:16;;;;;;;1999.90;999.90;;;0.40;99.90;;;;;;5088592;28;20454;-69
2022/01/16 05:34:43;;;;;;;1999.90;999.90;;;0.70;99.90;;;;;;5072946;28;20528;-70
2022/01/16 05:37:10;;;;;;;1999.90;999.90;;;0.10;99.90;;;;;;5073493;28;20453;-70
2022/01/16 05:39:39;;;;;;;1999.90;999.90;;;0.50;99.90;;;;;;5072952;28;20446;-70
2022/01/16 05:42:06;;;;;;;1999.90;999.90;;;0.20;99.90;;;;;;5084102;28;20484;-70
2022/01/16 05:44:33;;;;;;;1999.90;999.90;;;0.40;99.90;;;;;;5092136;28;20514;-70
2022/01/16 05:47:02;;;;;;;1999.90;999.90;;;0.50;99.90;;;;;;5079530;28;20457;-70
2022/01/16 05:49:28;;;;;;;1999.90;999.90;;;0.70;99.90;;;;;;5073268;28;20441;-70
2022/01/16 05:51:55;;;;;;;1999.90;999.90;;;0.90;99.90;;;;;;5084813;28;20448;-70
2022/01/16 05:54:22;;;;;;;1999.90;999.90;;;1.00;99.90;;;;;;5093117;28;20445;-70
2022/01/16 05:56:50;;;;;;;1999.90;999.90;;;1.00;99.90;;;;;;5082823;28;20507;-70
2022/01/16 05:59:17;;;;;;;1999.90;999.90;;;0.90;99.90;;;;;;5092836;28;20447;-70
2022/01/16 06:01:43;;;;;;;1999.90;999.90;;;0.90;99.90;;;;;;5082139;28;20945;-70
2022/01/16 06:04:10;;;;;;;1999.90;999.90;;;0.90;99.90;;;;;;5072152;28;20481;-70
2022/01/16 06:06:37;;;;;;;1999.90;999.90;;;0.90;99.90;;;;;;5080630;28;20464;-69
2022/01/16 06:09:03;;;;;;;1999.90;999.90;;;0.90;99.90;;;;;;5092034;28;20448;-70
2022/01/16 06:11:30;;;;;;;1999.90;999.90;;;0.90;99.90;;;;;;5085265;28;20469;-69
2022/01/16 06:13:58;;;;;;;1999.90;999.90;;;1.10;99.90;;;;;;5086784;28;20503;-70
2022/01/16 06:16:25;;;;;;;1999.90;999.90;;;0.90;99.90;;;;;;5078012;28;21039;-69
2022/01/16 06:18:53;;;;;;;1999.90;999.90;;;1.00;99.90;;;;;;5092591;28;20444;-69
2022/01/16 06:21:20;;;;;;;1999.90;999.90;;;1.10;99.90;;;;;;5087719;28;21008;-71
2022/01/16 06:23:46;;;;;;;1999.90;999.90;;;1.30;99.90;;;;;;5072131;28;20527;-70
2022/01/16 06:26:13;;;;;;;1999.90;999.90;;;1.20;99.90;;;;;;5074108;28;20476;-70
2022/01/16 06:28:39;;;;;;;1999.90;999.90;;;1.30;99.90;;;;;;5084519;28;20479;-70
2022/01/16 06:31:07;;;;;;;1999.90;999.90;;;1.40;99.90;;;;;;5090066;28;20441;-69
2022/01/16 06:33:34;;;;;;;1999.90;999.90;;;1.40;99.90;;;;;;5072756;28;20471;-69
2022/01/16 06:36:01;;;;;;;1999.90;999.90;;;1.30;99.90;;;;;;5072511;28;20543;-72
2022/01/16 06:38:28;;;;;;;1999.90;999.90;;;1.20;99.90;;;;;;5092545;28;20887;-69
2022/01/16 06:40:55;;;;;;;1999.90;999.90;;;1.20;99.90;;;;;;5086367;28;20453;-69
2022/01/16 06:43:21;;;;;;;1999.90;999.90;;;1.10;99.90;;;;;;5091730;28;20480;-71
2022/01/16 06:45:48;;;;;;;1999.90;999.90;;;1.10;99.90;;;;;;5092061;28;20534;-70
2022/01/16 06:48:16;;;;;;;1999.90;999.90;;;1.10;99.90;;;;;;5072448;28;20495;-69
2022/01/16 06:50:43;;;;;;;1999.90;999.90;;;1.00;99.90;;;;;;5070880;28;20870;-70
2022/01/16 06:53:09;;;;;;;1999.90;999.90;;;1.00;99.90;;;;;;5088116;28;20444;-69
2022/01/16 06:55:36;;;;;;;1999.90;999.90;;;0.90;99.90;;;;;;5074093;28;20522;-70
2022/01/16 06:58:02;;;;;;;1999.90;999.90;;;0.90;99.90;;;;;;5080766;28;20510;-71
2022/01/16 07:00:29;;;;;;;1999.90;999.90;;;0.90;99.90;;;;;;5091652;28;20440;-70
2022/01/16 07:02:56;;;;;;;1999.90;999.90;;;0.80;99.90;;;;;;5088436;28;20461;-71
2022/01/16 07:05:24;;;;;;;1999.90;999.90;;;0.90;99.90;;;;;;5090285;28;20476;-70
2022/01/16 07:07:51;;;;;;;1999.90;999.90;;;0.80;99.90;;;;;;5092045;28;20444;-70
2022/01/16 07:10:18;;;;;;;1999.90;999.90;;;1.00;99.90;;;;;;5077549;28;20511;-70
2022/01/16 07:12:45;;;;;;;1999.90;999.90;;;1.20;99.90;;;;;;5071190;28;20453;-70
2022/01/16 07:15:12;;;;;;;1999.90;999.90;;;1.40;99.90;;;;;;5080693;28;20472;-72
2022/01/16 07:17:39;;;;;;;1999.90;999.90;;;1.60;99.90;;;;;;5080254;28;20479;-70
2022/01/16 07:20:06;;;;;;;1999.90;999.90;;;1.70;99.90;;;;;;5086537;28;20444;-70
2022/01/16 07:22:34;;;;;;;1999.90;999.90;;;1.70;99.90;;;;;;5072486;28;20563;-70
2022/01/16 07:25:01;;;;;;;1999.90;999.90;;;1.80;99.90;;;;;;5078366;28;20485;-70
2022/01/16 07:27:28;;;;;;;1999.90;999.90;;;1.90;99.90;;;;;;5071719;28;20945;-70
2022/01/16 07:29:54;;;;;;;1999.90;999.90;;;2.20;99.90;;;;;;5082127;28;20453;-70
2022/01/16 07:32:21;;;;;;;1999.90;999.90;;;2.30;99.90;;;;;;5089532;28;20501;-71
2022/01/16 07:34:47;;;;;;;1999.90;999.90;;;2.40;99.90;;;;;;5086421;28;20516;-70
2022/01/16 07:37:14;;;;;;;1999.90;999.90;;;2.60;99.90;;;;;;5085010;28;21019;-70
2022/01/16 07:39:42;;;;;;;1999.90;999.90;;;2.70;99.90;;;;;;5074456;28;20484;-69
2022/01/16 07:42:09;;;;;;;1999.90;999.90;;;2.80;99.90;;;;;;5066276;28;21003;-69
2022/01/16 07:44:36;;;;;;;1999.90;999.90;;;2.80;99.90;;;;;;5068391;28;20538;-71
2022/01/16 07:47:03;;;;;;;1999.90;999.90;;;2.90;99.90;;;;;;5064314;28;20449;-70
2022/01/16 07:49:29;;;;;;;1999.90;999.90;;;3.00;99.90;;;;;;5074300;28;20441;-70
2022/01/16 07:51:56;;;;;;;1999.90;999.90;;;3.30;99.90;;;;;;5075630;28;20456;-70
2022/01/16 07:54:23;;;;;;;1999.90;999.90;;;3.30;99.90;;;;;;5071489;28;20441;-71
2022/01/16 07:56:51;;;;;;;1999.90;999.90;;;3.40;99.90;;;;;;5095033;28;20517;-70
2022/01/16 07:59:18;;;;;;;1999.90;999.90;;;3.50;99.90;;;;;;5094875;28;20513;-70
2022/01/16 08:01:45;;;;;;;1999.90;999.90;;;3.50;99.90;;;;;;5094482;28;20494;-70
2022/01/16 08:04:12;;;;;;;1999.90;999.90;;;3.50;99.90;;;;;;5094297;28;20521;-71
2022/01/16 08:06:38;;;;;;;1999.90;999.90;;;3.40;99.90;;;;;;5081245;28;20988;-70
2022/01/16 08:09:05;;;;;;;1999.90;999.90;;;3.30;99.90;;;;;;5081603;28;20471;-71
2022/01/16 08:11:32;;;;;;;1999.90;999.90;;;3.30;99.90;;;;;;5077823;28;21043;-72
2022/01/16 08:14:00;;;;;;;1999.90;999.90;;;3.30;99.90;;;;;;5070227;28;20442;-70
2022/01/16 08:16:27;;;;;;;1999.90;999.90;;;3.40;99.90;;;;;;5071018;28;20852;-71
2022/01/16 08:18:53;;;;;;;1999.90;999.90;;;3.50;99.90;;;;;;5080282;28;20453;-70
2022/01/16 08:21:20;;;;;;;1999.90;999.90;;;3.50;99.90;;;;;;5073637;28;20515;-70
2022/01/16 08:23:47;;;;;;;1999.90;999.90;;;3.60;99.90;;;;;;5085777;28;21077;-72
2022/01/16 08:26:13;;;;;;;1999.90;999.90;;;3.50;99.90;;;;;;5090305;28;20478;-70
2022/01/16 08:28:40;;;;;;;1999.90;999.90;;;3.40;99.90;;;;;;5075149;28;20496;-69
2022/01/16 08:31:08;;;;;;;1999.90;999.90;;;3.30;99.90;;;;;;5083613;28;20487;-70
2022/01/16 08:33:35;;;;;;;1999.90;999.90;;;3.20;99.90;;;;;;5086100;28;20448;-70
2022/01/16 08:36:01;;;;;;;1999.90;999.90;;;3.30;99.90;;;;;;5090360;28;20473;-70
2022/01/16 08:38:30;;;;;;;1999.90;999.90;;;3.20;99.90;;;;;;5083021;28;20444;-72
2022/01/16 08:40:56;;;;;;;1999.90;999.90;;;3.30;99.90;;;;;;5069975;28;20459;-69
2022/01/16 08:43:24;;;;;;;1999.90;999.90;;;3.30;99.90;;;;;;5080158;28;20495;-70
2022/01/16 08:45:51;;;;;;;1999.90;999.90;;;3.30;99.90;;;;;;5093567;28;20841;-69
2022/01/16 08:48:20;;;;;;;1999.90;999.90;;;3.30;99.90;;;;;;5092936;28;20502;-70
2022/01/16 08:50:47;;;;;;;1999.90;999.90;;;3.30;99.90;;;;;;5092588;28;20448;-72
2022/01/16 08:53:14;;;;;;;1999.90;999.90;;;3.30;99.90;;;;;;5093923;28;20497;-70
2022/01/16 08:55:40;;;;;;;1999.90;999.90;;;3.30;99.90;;;;;;5094183;28;20461;-70
2022/01/16 08:58:07;;;;;;;1999.90;999.90;;;3.20;99.90;;;;;;5090015;28;20498;-71
2022/01/16 09:00:34;;;;;;;1999.90;999.90;;;3.30;99.90;;;;;;5072602;28;20445;-73
2022/01/16 09:03:01;;;;;;;1999.90;999.90;;;3.40;99.90;;;;;;5073004;28;20441;-69
2022/01/16 09:05:29;;;;;;;1999.90;999.90;;;3.50;99.90;;;;;;5072491;28;20903;-73
2022/01/16 09:07:56;;;;;;;1999.90;999.90;;;3.60;99.90;;;;;;5086430;28;20449;-71
2022/01/16 09:10:24;;;;;;;1999.90;999.90;;;3.70;99.90;;;;;;5093273;28;20444;-70
2022/01/16 09:12:51;;;;;;;1999.90;999.90;;;3.70;99.90;;;;;;5080685;28;20440;-71
2022/01/16 09:15:18;;;;;;;1999.90;999.90;;;3.70;99.90;;;;;;5080743;28;20993;-70
2022/01/16 09:17:44;;;;;;;1999.90;999.90;;;3.80;99.90;;;;;;5072841;28;20938;-71
2022/01/16 09:20:14;;;;;;;1999.90;999.90;;;3.70;99.90;;;;;;5072999;28;20879;-71
2022/01/16 09:22:43;;;;;;;1999.90;999.90;;;3.70;99.90;;;;;;5071008;28;20460;-71
2022/01/16 09:25:11;;;;;;;1999.90;999.90;;;3.80;99.90;;;;;;5080755;28;20538;-70
2022/01/16 09:27:38;;;;;;;1999.90;999.90;;;3.80;99.90;;;;;;5084785;28;20453;-72
2022/01/16 09:30:06;;;;;;;1999.90;999.90;;;3.80;99.90;;;;;;5078929;28;20448;-71
2022/01/16 09:32:33;;;;;;;1999.90;999.90;;;3.80;99.90;;;;;;5091281;28;20449;-70
2022/01/16 09:35:01;;;;;;;1999.90;999.90;;;3.80;99.90;;;;;;5083153;28;20461;-71
2022/01/16 09:37:28;;;;;;;1999.90;999.90;;;3.80;99.90;;;;;;5072486;28;20449;-70
2022/01/16 09:39:58;;;;;;;1999.90;999.90;;;3.90;99.90;;;;;;5077911;28;20502;-74
2022/01/16 09:42:25;;;;;;;1999.90;999.90;;;3.90;99.90;;;;;;5088196;28;20448;-71
2022/01/16 09:44:53;;;;;;;1999.90;999.90;;;4.00;99.90;;;;;;5092745;28;20541;-71
2022/01/16 09:47:19;;;;;;;1999.90;999.90;;;4.00;99.90;;;;;;5092565;28;20499;-71
2022/01/16 09:49:46;;;;;;;1999.90;999.90;;;4.00;99.90;;;;;;5086657;28;20471;-70
2022/01/16 09:52:13;;;;;;;1999.90;999.90;;;4.10;99.90;;;;;;5071577;28;20495;-71
2022/01/16 09:54:40;;;;;;;1999.90;999.90;;;3.80;99.90;;;;;;5076309;28;20499;-72
2022/01/16 09:57:12;;;;;;;1999.90;999.90;;;4.20;99.90;;;;;;5083028;28;20495;-71
2022/01/16 09:59:38;;;;;;;1999.90;999.90;;;4.20;99.90;;;;;;5071558;28;20995;-71
2022/01/16 10:02:06;;;;;;;1999.90;999.90;;;4.20;99.90;;;;;;5086002;28;20475;-70
2022/01/16 10:04:36;;;;;;;1999.90;999.90;;;4.30;99.90;;;;;;5091975;28;20484;-69
2022/01/16 10:07:05;;;;;;;1999.90;999.90;;;4.20;99.90;;;;;;5078760;28;20437;-72
2022/01/16 10:09:34;;;;;;;1999.90;999.90;;;4.20;99.90;;;;;;5072117;28;20475;-70
2022/01/16 10:12:03;;;;;;;1999.90;999.90;;;4.20;99.90;;;;;;5075280;28;20444;-70
2022/01/16 10:14:34;;;;;;;1999.90;999.90;;;4.20;99.90;;;;;;5072302;28;20499;-70
2022/01/16 10:17:10;;;;;;;1999.90;999.90;;;4.10;99.90;;;;;;5083103;28;21253;-70
2022/01/16 10:19:36;;;;;;;1999.90;999.90;;;4.20;99.90;;;;;;5075342;28;20925;-70
2022/01/16 10:22:06;;;;;;;1999.90;999.90;;;4.00;99.90;;;;;;5082643;28;20449;-70
2022/01/16 10:24:34;;;;;;;1999.90;999.90;;;4.00;99.90;;;;;;5092398;28;20533;-70
2022/01/16 10:27:17;;;;;;;1999.90;999.90;;;3.90;99.90;;;;;;5086543;28;20452;-70
2022/01/16 10:29:47;;;;;;;1999.90;999.90;;;4.00;99.90;;;;;;5075999;28;20464;-69
2022/01/16 10:32:17;;;;;;;1999.90;999.90;;;4.00;99.90;;;;;;5071457;28;20491;-70
2022/01/16 10:34:44;;;;;;;1999.90;999.90;;;4.00;99.90;;;;;;5071869;28;20437;-70
2022/01/16 10:37:30;;;;;;;1999.90;999.90;;;4.10;99.90;;;;;;5072138;28;20529;-70
2022/01/16 10:40:00;;;;;;;1999.90;999.90;;;4.10;99.90;;;;;;5070692;28;20828;-70
2022/01/16 10:42:29;;;;;;;1999.90;999.90;;;4.20;99.90;;;;;;5076884;28;20498;-70
2022/01/16 10:45:03;;;;;;;1999.90;999.90;;;4.10;99.90;;;;;;5084874;28;20563;-66
2022/01/16 10:47:34;;;;;;;1999.90;999.90;;;4.10;99.90;;;;;;5092132;28;20443;-69
2022/01/16 10:50:17;;;;;;;1999.90;999.90;;;4.10;99.90;;;;;;5077770;28;20942;-69
2022/01/16 10:53:00;;;;;;;1999.90;999.90;;;4.20;99.90;;;;;;5071628;28;20491;-68
2022/01/16 10:55:35;;;;;;;1999.90;999.90;;;4.20;99.90;;;;;;5081661;28;20461;-72
2022/01/16 10:58:07;;;;;;;1999.90;999.90;;;4.20;99.90;;;;;;5071581;28;20437;-70
2022/01/16 11:00:36;;;;;;;1999.90;999.90;;;4.20;99.90;;;;;;5083745;28;20444;-71
2022/01/16 11:03:05;;;;;;;1999.90;999.90;;;4.20;99.90;;;;;;5071944;28;20444;-69
2022/01/16 11:05:37;;;;;;;1999.90;999.90;;;4.30;99.90;;;;;;5062335;28;20541;-70
2022/01/16 11:08:05;;;;;;;1999.90;999.90;;;4.30;99.90;;;;;;5070300;28;20449;-71
2022/01/16 11:10:33;;;;;;;1999.90;999.90;;;4.30;99.90;;;;;;5078067;28;20448;-71
2022/01/16 11:13:02;;;;;;;1999.90;999.90;;;4.30;99.90;;;;;;5095358;28;20445;-70
2022/01/16 11:15:30;;;;;;;1999.90;999.90;;;4.30;99.90;;;;;;5081725;28;20469;-71
2022/01/16 11:17:58;;;;;;;1999.90;999.90;;;4.40;99.90;;;;;;5073885;28;20460;-70
2022/01/16 11:20:31;;;;;;;1999.90;999.90;;;4.40;99.90;;;;;;5085566;28;20948;-70
2022/01/16 11:23:01;;;;;;;1999.90;999.90;;;4.40;99.90;;;;;;5095543;28;20456;-71
2022/01/16 11:25:33;;;;;;;1999.90;999.90;;;4.50;99.90;;;;;;5092715;28;20549;-70
2022/01/16 11:28:03;;;;;;;1999.90;999.90;;;4.60;99.90;;;;;;5095724;28;20791;-70
2022/01/16 11:30:31;;;;;;;1999.90;999.90;;;4.60;99.90;;;;;;5083591;28;20510;-70
2022/01/16 11:32:59;;;;;;;1999.90;999.90;;;4.60;99.90;;;;;;5075000;28;20445;-70
2022/01/16 11:35:27;;;;;;;1999.90;999.90;;;4.70;99.90;;;;;;5094244;28;20513;-71
2022/01/16 11:37:54;;;;;;;1999.90;999.90;;;4.70;99.90;;;;;;5095052;28;20444;-71
2022/01/16 11:40:27;;;;;;;1999.90;999.90;;;4.80;99.90;;;;;;5078336;28;20534;-70
2022/01/16 11:43:26;;;;;;;1999.90;999.90;;;4.90;99.90;;;;;;5075139;28;20438;-70
2022/01/16 11:46:02;;;;;;;1999.90;999.90;;;4.90;99.90;;;;;;5055092;28;20482;-70
2022/01/16 11:48:37;;;;;;;1999.90;999.90;;;5.00;99.90;;;;;;5057534;28;20485;-70
2022/01/16 11:51:04;;;;;;;1999.90;999.90;;;5.00;99.90;;;;;;5094765;28;20432;-70
2022/01/16 11:54:04;;;;;;;1999.90;999.90;;;5.00;99.90;;;;;;5090434;28;20509;-71
2022/01/16 11:56:54;;;;;;;1999.90;999.90;;;4.90;99.90;;;;;;5095037;28;20460;-71
2022/01/16 11:59:24;;;;;;;1999.90;999.90;;;4.90;99.90;;;;;;5093239;28;21066;-70
2022/01/16 12:01:53;;;;;;;1999.90;999.90;;;4.90;99.90;;;;;;5094539;28;20464;-70
2022/01/16 12:04:54;;;;;;;1999.90;999.90;;;4.80;99.90;;;;;;5086033;28;20957;-71
2022/01/16 12:07:47;;;;;;;1999.90;999.90;;;4.90;99.90;;;;;;5074716;28;20478;-70
2022/01/16 12:10:35;;;;;;;1999.90;999.90;;;4.90;99.90;;;;;;5078076;28;20444;-72
2022/01/16 12:13:01;;;;;;;1999.90;999.90;;;4.90;99.90;;;;;;5094152;28;20440;-70
2022/01/16 12:15:28;;;;;;;1999.90;999.90;;;4.90;99.90;;;;;;5077791;28;20535;-72
2022/01/16 12:17:55;;;;;;;1999.90;999.90;;;5.00;99.90;;;;;;5074172;28;20475;-70
2022/01/16 12:20:26;;;;;;;1999.90;999.90;;;5.00;99.90;;;;;;5089709;28;20506;-68
2022/01/16 12:22:55;;;;;;;1999.90;999.90;;;5.00;99.90;;;;;;5086958;28;20517;-72
2022/01/16 12:25:24;;;;;;;1999.90;999.90;;;5.00;99.90;;;;;;5075095;28;20485;-70
2022/01/16 12:27:54;;;;;;;1999.90;999.90;;;5.00;99.90;;;;;;5074109;28;20870;-69
2022/01/16 12:30:48;;;;;;;1999.90;999.90;;;5.00;99.90;;;;;;5088821;28;20884;-70
2022/01/16 12:33:24;;;;;;;1999.90;999.90;;;5.00;99.90;;;;;;5094256;28;20429;-70
2022/01/16 12:36:14;;;;;;;1999.90;999.90;;;5.00;99.90;;;;;;5074859;28;20472;-70
2022/01/16 12:38:53;;;;;;;1999.90;999.90;;;5.10;99.90;;;;;;5074933;28;20453;-70
2022/01/16 12:41:30;;;;;;;1999.90;999.90;;;5.10;99.90;;;;;;5053546;28;20445;-70
2022/01/16 12:43:59;;;;;;;1999.90;999.90;;;5.10;99.90;;;;;;5057001;28;20491;-72
2022/01/16 12:46:29;;;;;;;1999.90;999.90;;;5.10;99.90;;;;;;5082514;28;20485;-70
2022/01/16 12:48:59;;;;;;;1999.90;999.90;;;5.10;99.90;;;;;;5078325;28;20437;-70
2022/01/16 12:51:29;;;;;;;1999.90;999.90;;;5.20;99.90;;;;;;5093432;28;20540;-70
2022/01/16 12:54:00;;;;;;;1999.90;999.90;;;5.20;99.90;;;;;;5091053;28;20456;-70